createdAt,value
2022-10-29T00:00:22.085Z,90.22
2022-10-29T00:01:24.055Z,90.44
2022-10-29T00:02:26.729Z,90.83
2022-10-29T00:03:28.658Z,91.14
2022-10-29T00:04:30.394Z,91.42
2022-10-29T00:05:33.692Z,91.74
2022-10-29T00:06:37.089Z,91.88
2022-10-29T00:07:39.200Z,91.96
2022-10-29T00:08:41.710Z,92.05
2022-10-29T00:09:43.609Z,91.86
2022-10-29T00:10:45.355Z,91.67
2022-10-29T00:11:47.009Z,91.68
2022-10-29T00:12:49.862Z,91.72
2022-10-29T00:14:00.764Z,91.72
2022-10-29T00:15:05.197Z,91.70
2022-10-29T00:16:19.247Z,91.93
2022-10-29T00:17:21.213Z,92.16
2022-10-29T00:18:23.238Z,92.26
2022-10-29T00:19:25.219Z,92.43
2022-10-29T00:20:27.512Z,92.63
2022-10-29T00:21:30.468Z,92.65
2022-10-29T00:22:32.435Z,92.99
2022-10-29T00:23:34.572Z,93.20
2022-10-29T00:24:38.292Z,93.33
2022-10-29T00:25:42.724Z,93.44
2022-10-29T00:26:44.624Z,93.25
2022-10-29T00:27:48.305Z,93.13
2022-10-29T00:28:55.055Z,92.99
2022-10-29T00:29:57.057Z,93.08
2022-10-29T00:31:08.036Z,93.16
2022-10-29T00:32:09.862Z,93.39
2022-10-29T00:33:11.709Z,93.81
2022-10-29T00:34:13.362Z,93.94
2022-10-29T00:35:15.254Z,94.00
2022-10-29T00:36:23.933Z,93.84
2022-10-29T00:37:25.827Z,93.93
2022-10-29T00:38:27.803Z,94.10
2022-10-29T00:39:29.699Z,94.08
2022-10-29T00:40:38.409Z,94.06
2022-10-29T00:41:40.865Z,94.25
2022-10-29T00:42:42.741Z,94.37
2022-10-29T00:43:53.539Z,94.45
2022-10-29T00:44:55.536Z,94.50
2022-10-29T00:46:10.259Z,94.50
2022-10-29T00:47:27.217Z,94.31
2022-10-29T00:48:33.378Z,94.14
2022-10-29T00:49:37.135Z,94.26
2022-10-29T00:50:39.210Z,94.20
2022-10-29T00:51:41.820Z,94.07
2022-10-29T00:52:47.296Z,94.15
2022-10-29T00:55:06.614Z,94.44
2022-10-29T00:56:10.330Z,94.79
2022-10-29T00:57:15.951Z,95.05
2022-10-29T00:58:19.556Z,95.33
2022-10-29T00:59:21.491Z,95.55
2022-10-29T01:00:24.354Z,95.74
2022-10-29T01:01:26.468Z,96.11
2022-10-29T01:02:30.991Z,96.28
2022-10-29T01:03:33.627Z,96.31
2022-10-29T01:04:36.795Z,96.33
2022-10-29T01:05:40.206Z,96.18
2022-10-29T01:06:42.706Z,96.04
2022-10-29T01:07:45.202Z,95.94
2022-10-29T01:08:47.013Z,95.87
2022-10-29T01:09:49.627Z,96.02
2022-10-29T01:11:00.812Z,96.09
2022-10-29T01:12:09.386Z,96.21
2022-10-29T01:13:20.847Z,96.40
2022-10-29T01:14:49.166Z,96.45
2022-10-29T01:16:11.307Z,96.62
2022-10-29T01:17:22.901Z,96.71
2022-10-29T01:18:34.675Z,96.74
2022-10-29T01:20:13.911Z,97.01
2022-10-29T01:21:34.785Z,97.24
2022-10-29T01:23:12.703Z,97.59
2022-10-29T01:24:44.389Z,97.80
2022-10-29T01:26:23.640Z,98.02
2022-10-29T01:27:49.078Z,98.07
2022-10-29T01:29:10.450Z,98.32
2022-10-29T01:30:41.694Z,98.53
2022-10-29T01:32:05.542Z,98.63
2022-10-29T01:33:11.072Z,98.68
2022-10-29T01:34:35.073Z,98.66
2022-10-29T01:36:06.663Z,98.61
2022-10-29T01:37:21.308Z,98.61
2022-10-29T01:38:30.123Z,98.81
2022-10-29T01:39:52.291Z,98.88
2022-10-29T01:42:13.982Z,99.20
2022-10-29T01:43:23.697Z,99.23
2022-10-29T01:44:50.408Z,99.29
2022-10-29T01:45:56.009Z,99.39
2022-10-29T01:47:04.103Z,99.56
2022-10-29T01:48:12.620Z,99.61
2022-10-29T01:49:21.207Z,99.65
2022-10-29T01:50:25.037Z,99.77
2022-10-29T01:51:31.707Z,100.00
2022-10-29T01:52:37.320Z,100.00
2022-10-29T01:53:39.637Z,100.00
2022-10-29T01:54:43.490Z,100.00
2022-10-29T01:55:45.362Z,100.00
2022-10-29T01:56:57.641Z,100.00
2022-10-29T01:57:59.813Z,100.00
2022-10-29T01:59:05.449Z,100.00
2022-10-29T02:00:14.116Z,100.00
2022-10-29T02:01:46.983Z,100.00
2022-10-29T02:03:10.761Z,100.00
2022-10-29T02:06:03.401Z,100.00
2022-10-29T02:07:27.445Z,100.00
2022-10-29T02:08:32.945Z,100.00
2022-10-29T02:09:47.878Z,100.00
2022-10-29T02:10:56.376Z,100.00
2022-10-29T02:12:07.936Z,100.00
2022-10-29T02:13:13.523Z,100.00
2022-10-29T02:14:20.009Z,100.00
2022-10-29T02:15:42.225Z,100.00
2022-10-29T02:16:45.092Z,100.00
2022-10-29T02:17:47.114Z,100.00
2022-10-29T02:18:49.855Z,100.00
2022-10-29T02:19:51.582Z,100.00
2022-10-29T02:20:53.419Z,100.00
2022-10-29T02:21:55.176Z,100.00
2022-10-29T02:22:57.414Z,100.00
2022-10-29T02:23:59.189Z,100.00
2022-10-29T02:25:01.851Z,100.00
2022-10-29T02:26:03.932Z,100.00
2022-10-29T02:27:06.842Z,100.00
2022-10-29T02:28:08.829Z,100.00
2022-10-29T02:29:11.690Z,100.00
2022-10-29T02:30:14.728Z,100.00
2022-10-29T02:31:16.677Z,100.00
2022-10-29T02:32:18.379Z,100.00
2022-10-29T02:33:20.120Z,100.00
2022-10-29T02:34:21.741Z,100.00
2022-10-29T02:35:23.614Z,100.00
2022-10-29T02:36:25.624Z,100.00
2022-10-29T02:37:29.035Z,100.00
2022-10-29T02:38:30.872Z,100.00
2022-10-29T02:39:32.654Z,100.00
2022-10-29T02:40:34.628Z,100.00
2022-10-29T02:41:36.413Z,100.00
2022-10-29T02:42:38.884Z,100.00
2022-10-29T02:43:40.708Z,100.00
2022-10-29T02:44:42.432Z,100.00
2022-10-29T02:45:44.189Z,100.00
2022-10-29T02:46:45.926Z,100.00
2022-10-29T02:47:47.586Z,100.00
2022-10-29T02:48:50.168Z,100.00
2022-10-29T02:49:52.064Z,100.00
2022-10-29T02:50:54.930Z,100.00
2022-10-29T02:51:56.701Z,100.00
2022-10-29T02:53:00.122Z,100.00
2022-10-29T02:54:01.965Z,100.00
2022-10-29T02:55:04.126Z,100.00
2022-10-29T02:56:07.557Z,100.00
2022-10-29T02:57:09.377Z,100.00
2022-10-29T02:58:11.678Z,100.00
2022-10-29T02:59:13.543Z,100.00
2022-10-29T03:00:17.271Z,100.00
2022-10-29T03:01:19.536Z,100.00
2022-10-29T03:02:22.160Z,100.00
2022-10-29T03:03:24.180Z,100.00
2022-10-29T03:04:25.795Z,100.00
2022-10-29T03:05:27.522Z,100.00
2022-10-29T03:06:30.043Z,100.00
2022-10-29T03:07:36.567Z,100.00
2022-10-29T03:08:38.529Z,100.00
2022-10-29T03:09:41.358Z,100.00
2022-10-29T03:10:43.722Z,100.00
2022-10-29T03:11:46.212Z,100.00
2022-10-29T03:12:47.881Z,100.00
2022-10-29T03:13:49.769Z,100.00
2022-10-29T03:14:51.475Z,100.00
2022-10-29T03:15:53.123Z,100.00
2022-10-29T03:16:54.839Z,100.00
2022-10-29T03:17:57.707Z,100.00
2022-10-29T03:18:59.938Z,100.00
2022-10-29T03:20:01.929Z,100.00
2022-10-29T03:21:04.275Z,100.00
2022-10-29T03:22:06.026Z,100.00
2022-10-29T03:23:07.673Z,100.00
2022-10-29T03:24:09.889Z,100.00
2022-10-29T03:25:11.794Z,100.00
2022-10-29T03:26:14.720Z,100.00
2022-10-29T03:27:16.865Z,100.00
2022-10-29T03:28:23.846Z,100.00
2022-10-29T03:29:25.614Z,100.00
2022-10-29T03:30:27.381Z,100.00
2022-10-29T03:31:29.103Z,100.00
2022-10-29T03:32:30.858Z,100.00
2022-10-29T03:33:32.599Z,100.00
2022-10-29T03:34:34.503Z,100.00
2022-10-29T03:35:36.260Z,100.00
2022-10-29T03:36:38.649Z,100.00
2022-10-29T03:37:40.741Z,100.00
2022-10-29T03:38:42.449Z,100.00
2022-10-29T03:39:44.079Z,100.00
2022-10-29T03:40:45.826Z,100.00
2022-10-29T03:41:47.477Z,100.00
2022-10-29T03:42:49.259Z,100.00
2022-10-29T03:43:51.052Z,100.00
2022-10-29T03:44:52.855Z,100.00
2022-10-29T03:45:57.086Z,100.00
2022-10-29T03:46:59.623Z,100.00
2022-10-29T03:48:04.615Z,100.00
2022-10-29T03:49:06.971Z,100.00
2022-10-29T03:50:10.192Z,100.00
2022-10-29T03:51:12.089Z,100.00
2022-10-29T03:52:13.823Z,100.00
2022-10-29T03:53:15.467Z,100.00
2022-10-29T03:54:17.198Z,100.00
2022-10-29T03:55:18.817Z,100.00
2022-10-29T03:56:21.639Z,100.00
2022-10-29T03:57:23.541Z,100.00
2022-10-29T03:58:26.470Z,100.00
2022-10-29T03:59:28.176Z,100.00
2022-10-29T04:00:29.920Z,100.00
2022-10-29T04:01:31.722Z,100.00
2022-10-29T04:02:34.073Z,100.00
2022-10-29T04:03:37.590Z,100.00
2022-10-29T04:04:39.643Z,100.00
2022-10-29T04:05:41.435Z,100.00
2022-10-29T04:06:43.369Z,100.00
2022-10-29T04:07:45.718Z,100.00
2022-10-29T04:08:47.747Z,100.00
2022-10-29T04:09:49.430Z,100.00
2022-10-29T04:10:51.564Z,100.00
2022-10-29T04:11:53.414Z,100.00
2022-10-29T04:12:55.943Z,100.00
2022-10-29T04:13:58.019Z,100.00
2022-10-29T04:14:59.792Z,100.00
2022-10-29T04:16:01.637Z,100.00
2022-10-29T04:17:03.478Z,100.00
2022-10-29T04:18:05.628Z,100.00
2022-10-29T04:19:07.659Z,100.00
2022-10-29T04:20:21.179Z,100.00
2022-10-29T04:28:44.243Z,100.00
2022-10-29T04:29:46.334Z,100.00
2022-10-29T04:30:48.176Z,100.00
2022-10-29T04:31:50.327Z,100.00
2022-10-29T04:32:59.170Z,100.00
2022-10-29T04:34:02.108Z,100.00
2022-10-29T04:35:04.548Z,100.00
2022-10-29T04:36:07.337Z,100.00
2022-10-29T04:37:09.129Z,100.00
2022-10-29T04:38:12.548Z,100.00
2022-10-29T04:39:15.436Z,100.00
2022-10-29T04:40:18.190Z,100.00
2022-10-29T04:41:20.031Z,100.00
2022-10-29T04:42:21.854Z,100.00
2022-10-29T04:43:23.896Z,100.00
2022-10-29T04:44:26.069Z,100.00
2022-10-29T04:45:28.121Z,100.00
2022-10-29T04:46:30.283Z,100.00
2022-10-29T04:47:32.315Z,100.00
2022-10-29T04:48:34.048Z,100.00
2022-10-29T04:49:35.768Z,100.00
2022-10-29T04:50:38.097Z,100.00
2022-10-29T04:51:39.920Z,100.00
2022-10-29T04:52:41.573Z,100.00
2022-10-29T04:53:44.303Z,100.00
2022-10-29T04:54:46.368Z,100.00
2022-10-29T04:55:48.215Z,100.00
2022-10-29T04:56:50.416Z,100.00
2022-10-29T04:57:52.220Z,100.00
2022-10-29T04:58:54.445Z,100.00
2022-10-29T04:59:56.720Z,100.00
2022-10-29T05:01:02.614Z,100.00
2022-10-29T05:02:04.819Z,100.00
2022-10-29T05:03:06.941Z,100.00
2022-10-29T05:04:09.195Z,100.00
2022-10-29T05:05:11.356Z,100.00
2022-10-29T05:06:14.165Z,100.00
2022-10-29T05:07:16.386Z,100.00
2022-10-29T05:08:18.544Z,100.00
2022-10-29T05:09:20.702Z,100.00
2022-10-29T05:10:24.436Z,100.00
2022-10-29T05:11:26.361Z,100.00
2022-10-29T05:12:28.004Z,100.00
2022-10-29T05:13:31.713Z,100.00
2022-10-29T05:14:33.626Z,100.00
2022-10-29T05:15:36.194Z,100.00
2022-10-29T05:16:39.343Z,100.00
2022-10-29T05:17:41.787Z,100.00
2022-10-29T05:18:43.803Z,100.00
2022-10-29T05:19:45.751Z,100.00
2022-10-29T05:20:48.011Z,100.00
2022-10-29T05:21:50.222Z,100.00
2022-10-29T05:23:04.170Z,100.00
2022-10-29T05:24:06.448Z,100.00
2022-10-29T05:25:08.966Z,100.00
2022-10-29T05:26:10.765Z,100.00
2022-10-29T05:27:13.695Z,100.00
2022-10-29T05:28:18.742Z,100.00
2022-10-29T05:29:20.943Z,100.00
2022-10-29T05:30:22.848Z,100.00
2022-10-29T05:31:24.807Z,100.00
2022-10-29T05:32:30.303Z,100.00
2022-10-29T05:33:32.724Z,100.00
2022-10-29T05:34:34.624Z,100.00
2022-10-29T05:35:36.938Z,100.00
2022-10-29T05:36:40.155Z,100.00
2022-10-29T05:37:41.945Z,100.00
2022-10-29T05:38:43.679Z,100.00
2022-10-29T05:39:45.423Z,100.00
2022-10-29T05:40:47.399Z,100.00
2022-10-29T05:41:49.409Z,100.00
2022-10-29T05:42:52.291Z,100.00
2022-10-29T05:43:54.086Z,100.00
2022-10-29T05:44:56.301Z,100.00
2022-10-29T05:45:57.981Z,100.00
2022-10-29T05:47:02.662Z,100.00
2022-10-29T05:48:05.062Z,100.00
2022-10-29T05:49:07.244Z,100.00
2022-10-29T05:50:10.439Z,100.00
2022-10-29T05:51:12.288Z,100.00
2022-10-29T05:52:16.624Z,100.00
2022-10-29T05:53:18.709Z,100.00
2022-10-29T05:54:20.874Z,100.00
2022-10-29T05:55:23.370Z,100.00
2022-10-29T05:56:25.170Z,100.00
2022-10-29T05:57:27.533Z,100.00
2022-10-29T05:58:29.791Z,100.00
2022-10-29T05:59:33.797Z,100.00
2022-10-29T06:00:38.665Z,100.00
2022-10-29T06:01:40.774Z,100.00
2022-10-29T06:02:43.390Z,100.00
2022-10-29T06:03:45.794Z,100.00
2022-10-29T06:04:48.015Z,100.00
2022-10-29T06:05:50.495Z,100.00
2022-10-29T06:06:52.442Z,100.00
2022-10-29T06:07:59.446Z,100.00
2022-10-29T06:09:01.683Z,100.00
2022-10-29T06:10:04.197Z,100.00
2022-10-29T06:11:08.518Z,100.00
2022-10-29T06:12:10.283Z,100.00
2022-10-29T06:13:14.419Z,100.00
2022-10-29T06:14:16.775Z,100.00
2022-10-29T06:15:19.402Z,100.00
2022-10-29T06:16:24.237Z,100.00
2022-10-29T06:17:27.018Z,100.00
2022-10-29T06:18:29.027Z,100.00
2022-10-29T06:19:32.105Z,100.00
2022-10-29T06:20:35.639Z,100.00
2022-10-29T06:21:37.708Z,100.00
2022-10-29T06:22:39.750Z,100.00
2022-10-29T06:23:41.512Z,100.00
2022-10-29T06:24:43.286Z,100.00
2022-10-29T06:25:45.037Z,100.00
2022-10-29T06:26:46.778Z,100.00
2022-10-29T06:27:50.253Z,100.00
2022-10-29T06:28:52.339Z,100.00
2022-10-29T06:29:54.243Z,99.85
2022-10-29T06:30:56.578Z,99.66
2022-10-29T06:31:58.278Z,99.51
2022-10-29T06:33:01.049Z,99.36
2022-10-29T06:34:02.939Z,99.28
2022-10-29T06:35:05.372Z,99.35
2022-10-29T06:36:07.984Z,99.10
2022-10-29T06:37:11.047Z,98.49
2022-10-29T06:38:14.683Z,98.19
2022-10-29T06:39:18.980Z,98.05
2022-10-29T06:40:21.522Z,96.91
2022-10-29T06:41:23.683Z,96.38
2022-10-29T06:42:26.186Z,96.22
2022-10-29T06:43:28.072Z,96.68
2022-10-29T06:44:30.357Z,96.66
2022-10-29T06:45:33.565Z,96.77
2022-10-29T06:46:35.415Z,98.68
2022-10-29T06:47:45.988Z,97.38
2022-10-29T06:48:48.175Z,96.57
2022-10-29T06:49:50.097Z,95.42
2022-10-29T06:50:52.057Z,98.87
2022-10-29T06:51:53.892Z,98.08
2022-10-29T06:53:00.796Z,98.08
2022-10-29T06:54:03.165Z,96.34
2022-10-29T06:55:06.768Z,97.58
2022-10-29T06:56:10.453Z,97.41
2022-10-29T06:57:13.396Z,96.38
2022-10-29T06:58:18.842Z,97.60
2022-10-29T06:59:20.832Z,94.23
2022-10-29T07:00:23.140Z,92.41
2022-10-29T07:01:30.695Z,93.05
2022-10-29T07:02:30.703Z,95.71
2022-10-29T07:03:33.126Z,93.66
2022-10-29T07:04:34.929Z,93.79
2022-10-29T07:05:37.042Z,91.84
2022-10-29T07:06:39.518Z,93.31
2022-10-29T07:07:41.209Z,98.62
2022-10-29T07:08:45.199Z,98.80
2022-10-29T07:09:47.982Z,98.61
2022-10-29T07:10:51.978Z,93.95
2022-10-29T07:11:54.941Z,98.07
2022-10-29T07:12:57.241Z,99.36
2022-10-29T07:14:00.126Z,100.00
2022-10-29T07:15:02.417Z,99.08
2022-10-29T07:16:05.131Z,97.79
2022-10-29T07:17:06.979Z,95.20
2022-10-29T07:18:11.624Z,89.32
2022-10-29T07:19:13.581Z,91.14
2022-10-29T07:20:17.799Z,93.33
2022-10-29T07:21:19.583Z,93.33
2022-10-29T07:22:21.245Z,87.26
2022-10-29T07:23:23.413Z,91.26
2022-10-29T07:24:25.280Z,90.84
2022-10-29T07:25:28.917Z,88.29
2022-10-29T07:26:30.997Z,90.12
2022-10-29T07:27:32.706Z,90.78
2022-10-29T07:28:34.593Z,89.36
2022-10-29T07:29:36.696Z,84.87
2022-10-29T07:30:39.111Z,84.87
2022-10-29T07:31:41.326Z,87.22
2022-10-29T07:32:43.377Z,87.17
2022-10-29T07:33:45.763Z,88.60
2022-10-29T07:34:47.587Z,85.61
2022-10-29T07:35:49.450Z,87.36
2022-10-29T07:36:52.450Z,87.80
2022-10-29T07:38:05.311Z,87.80
2022-10-29T07:39:05.436Z,86.92
2022-10-29T07:40:09.875Z,84.07
2022-10-29T07:41:12.026Z,84.49
2022-10-29T07:42:14.050Z,81.93
2022-10-29T07:43:17.283Z,80.84
2022-10-29T07:44:19.264Z,83.90
2022-10-29T07:45:21.580Z,83.06
2022-10-29T07:46:23.506Z,88.13
2022-10-29T07:47:25.803Z,85.85
2022-10-29T07:48:28.052Z,82.15
2022-10-29T07:49:29.970Z,83.20
2022-10-29T07:50:32.318Z,85.18
2022-10-29T07:51:34.179Z,82.10
2022-10-29T07:52:37.058Z,81.71
2022-10-29T07:53:39.026Z,83.19
2022-10-29T07:54:41.374Z,82.75
2022-10-29T07:55:44.173Z,84.33
2022-10-29T07:56:47.764Z,87.73
2022-10-29T07:57:55.478Z,88.47
2022-10-29T07:58:57.935Z,89.05
2022-10-29T08:00:00.186Z,89.62
2022-10-29T08:01:02.791Z,86.35
2022-10-29T08:02:05.227Z,84.85
2022-10-29T08:03:07.443Z,88.33
2022-10-29T08:04:09.558Z,87.22
2022-10-29T08:05:11.801Z,85.13
2022-10-29T08:06:14.706Z,84.39
2022-10-29T08:07:18.583Z,85.37
2022-10-29T08:08:21.448Z,85.56
2022-10-29T08:09:26.296Z,85.97
2022-10-29T08:10:30.938Z,85.74
2022-10-29T08:11:33.339Z,86.28
2022-10-29T08:12:35.312Z,86.48
2022-10-29T08:13:38.079Z,86.57
2022-10-29T08:14:39.902Z,87.55
2022-10-29T08:15:45.668Z,86.67
2022-10-29T08:16:47.876Z,86.99
2022-10-29T08:17:50.881Z,86.98
2022-10-29T08:18:53.221Z,86.76
2022-10-29T08:19:56.153Z,87.38
2022-10-29T08:21:00.909Z,86.38
2022-10-29T08:22:02.763Z,85.99
2022-10-29T08:23:05.460Z,85.09
2022-10-29T08:24:07.401Z,85.00
2022-10-29T08:25:10.349Z,85.94
2022-10-29T08:27:45.866Z,86.56
2022-10-29T08:28:47.934Z,83.85
2022-10-29T08:29:50.238Z,84.61
2022-10-29T08:30:52.585Z,84.29
2022-10-29T08:31:54.277Z,84.82
2022-10-29T08:32:56.871Z,86.00
2022-10-29T08:33:59.322Z,85.16
2022-10-29T08:35:02.426Z,84.27
2022-10-29T08:36:05.647Z,84.46
2022-10-29T08:37:08.729Z,91.09
2022-10-29T08:38:10.922Z,90.71
2022-10-29T08:39:13.100Z,90.33
2022-10-29T08:40:28.841Z,85.53
2022-10-29T08:41:34.738Z,88.97
2022-10-29T08:42:46.375Z,89.17
2022-10-29T08:44:04.314Z,88.25
2022-10-29T08:45:18.989Z,84.83
2022-10-29T08:46:30.641Z,83.27
2022-10-29T08:47:38.172Z,82.14
2022-10-29T08:48:50.054Z,80.66
2022-10-29T08:50:08.048Z,81.62
2022-10-29T08:51:23.781Z,86.60
2022-10-29T08:52:32.220Z,84.96
2022-10-29T08:53:38.292Z,81.42
2022-10-29T08:54:43.324Z,83.01
2022-10-29T08:55:46.249Z,81.96
2022-10-29T08:56:58.951Z,81.29
2022-10-29T08:58:04.644Z,79.72
2022-10-29T08:59:12.846Z,80.24
2022-10-29T09:00:22.249Z,80.17
2022-10-29T09:01:24.875Z,80.92
2022-10-29T09:02:27.104Z,81.49
2022-10-29T09:03:29.559Z,82.29
2022-10-29T09:04:37.520Z,85.21
2022-10-29T09:05:52.607Z,80.17
2022-10-29T09:07:07.555Z,83.50
2022-10-29T09:08:48.722Z,81.08
2022-10-29T09:10:00.653Z,81.97
2022-10-29T09:11:33.289Z,79.65
2022-10-29T09:13:03.478Z,80.98
2022-10-29T09:14:24.288Z,81.72
2022-10-29T09:15:41.818Z,77.75
2022-10-29T09:17:02.906Z,76.36
2022-10-29T09:18:12.032Z,77.62
2022-10-29T09:19:26.801Z,79.23
2022-10-29T09:20:38.361Z,76.64
2022-10-29T09:22:11.602Z,77.15
2022-10-29T09:23:26.508Z,77.84
2022-10-29T09:24:50.119Z,78.34
2022-10-29T09:27:46.334Z,78.13
2022-10-29T09:28:54.648Z,78.41
2022-10-29T09:30:09.544Z,79.01
2022-10-29T09:31:15.114Z,79.34
2022-10-29T09:32:29.742Z,79.56
2022-10-29T09:33:32.811Z,79.36
2022-10-29T09:34:41.880Z,78.87
2022-10-29T09:35:50.792Z,78.32
2022-10-29T09:36:54.906Z,78.32
2022-10-29T09:38:01.470Z,78.42
2022-10-29T09:39:13.167Z,78.79
2022-10-29T09:40:31.636Z,78.29
2022-10-29T09:41:35.243Z,78.17
2022-10-29T09:42:43.225Z,78.34
2022-10-29T09:43:49.623Z,78.55
2022-10-29T09:44:55.527Z,78.74
2022-10-29T09:46:17.784Z,78.39
2022-10-29T09:47:37.236Z,78.27
2022-10-29T09:48:42.858Z,78.82
2022-10-29T09:50:12.593Z,78.80
2022-10-29T09:51:33.581Z,78.72
2022-10-29T09:52:38.408Z,78.72
2022-10-29T09:53:40.431Z,78.77
2022-10-29T09:54:42.768Z,78.74
2022-10-29T09:55:47.681Z,78.37
2022-10-29T09:58:02.601Z,78.21
2022-10-29T09:59:20.073Z,78.14
2022-10-29T10:00:34.843Z,78.17
2022-10-29T10:01:53.993Z,77.68
2022-10-29T10:03:12.440Z,77.46
2022-10-29T10:04:23.006Z,77.06
2022-10-29T10:05:32.629Z,76.87
2022-10-29T10:06:40.632Z,76.18
2022-10-29T10:09:05.620Z,75.26
2022-10-29T10:10:34.087Z,75.18
2022-10-29T10:11:49.025Z,74.95
2022-10-29T10:12:52.546Z,74.65
2022-10-29T10:14:00.183Z,75.16
2022-10-29T10:15:09.052Z,75.26
2022-10-29T10:16:11.232Z,74.86
2022-10-29T10:17:13.798Z,74.91
2022-10-29T10:18:28.604Z,74.13
2022-10-29T10:19:31.906Z,74.51
2022-10-29T10:20:40.349Z,74.57
2022-10-29T10:21:42.678Z,74.49
2022-10-29T10:22:50.009Z,74.52
2022-10-29T10:23:55.071Z,73.94
2022-10-29T10:24:58.906Z,74.16
2022-10-29T10:26:04.105Z,73.90
2022-10-29T10:27:20.738Z,73.70
2022-10-29T10:28:29.777Z,73.33
2022-10-29T10:29:33.060Z,73.55
2022-10-29T10:30:35.502Z,73.76
2022-10-29T10:31:42.311Z,73.92
2022-10-29T10:32:46.254Z,74.21
2022-10-29T10:33:53.289Z,74.42
2022-10-29T10:34:55.471Z,75.13
2022-10-29T10:36:05.126Z,75.11
2022-10-29T10:37:11.736Z,75.14
2022-10-29T10:38:15.325Z,74.95
2022-10-29T10:39:30.078Z,75.49
2022-10-29T10:40:32.291Z,75.84
2022-10-29T10:41:36.410Z,75.99
2022-10-29T10:42:40.574Z,75.94
2022-10-29T10:43:45.833Z,75.80
2022-10-29T10:44:54.364Z,75.94
2022-10-29T10:45:59.629Z,75.82
2022-10-29T10:47:06.738Z,75.86
2022-10-29T10:48:12.463Z,75.69
2022-10-29T10:49:19.251Z,76.04
2022-10-29T10:51:47.996Z,77.04
2022-10-29T10:52:53.375Z,77.76
2022-10-29T10:53:57.935Z,78.34
2022-10-29T10:55:11.360Z,78.43
2022-10-29T10:56:19.752Z,77.54
2022-10-29T10:57:27.669Z,78.17
2022-10-29T10:58:39.710Z,78.56
2022-10-29T11:00:01.917Z,78.84
2022-10-29T11:01:08.692Z,78.74
2022-10-29T11:04:00.878Z,79.22
2022-10-29T11:06:27.299Z,79.24
2022-10-29T11:07:33.731Z,78.92
2022-10-29T11:08:56.865Z,78.35
2022-10-29T11:11:08.919Z,78.26
2022-10-29T11:12:29.210Z,80.66
2022-10-29T11:13:33.744Z,78.70
2022-10-29T11:14:41.406Z,77.39
2022-10-29T11:15:50.181Z,78.24
2022-10-29T11:16:57.671Z,77.48
2022-10-29T11:19:22.289Z,77.94
2022-10-29T11:20:34.408Z,77.46
2022-10-29T11:21:51.938Z,77.59
2022-10-29T11:22:58.266Z,77.48
2022-10-29T11:24:10.307Z,76.98
2022-10-29T11:25:26.265Z,77.41
2022-10-29T11:26:44.363Z,76.95
2022-10-29T11:28:06.780Z,80.11
2022-10-29T11:29:15.391Z,77.68
2022-10-29T11:30:20.094Z,77.75
2022-10-29T11:31:25.595Z,76.87
2022-10-29T11:33:08.692Z,76.77
2022-10-29T11:34:18.590Z,77.69
2022-10-29T11:35:34.351Z,80.13
2022-10-29T11:36:52.674Z,79.88
2022-10-29T11:38:06.889Z,80.99
2022-10-29T11:39:12.447Z,81.94
2022-10-29T11:40:28.289Z,80.40
2022-10-29T11:41:46.155Z,78.07
2022-10-29T11:42:49.707Z,78.94
2022-10-29T11:43:51.836Z,78.74
2022-10-29T11:44:53.872Z,80.75
2022-10-29T11:46:00.316Z,79.81
2022-10-29T11:47:20.918Z,78.69
2022-10-29T11:48:42.127Z,81.06
2022-10-29T11:49:55.623Z,79.57
2022-10-29T11:51:01.938Z,78.20
2022-10-29T11:52:17.313Z,79.52
2022-10-29T11:53:40.013Z,80.24
2022-10-29T11:54:48.417Z,81.88
2022-10-29T11:56:14.025Z,83.25
2022-10-29T11:57:58.687Z,81.18
2022-10-29T11:59:38.255Z,81.97
2022-10-29T12:00:59.295Z,81.16
2022-10-29T12:02:20.399Z,80.24
2022-10-29T12:03:41.741Z,82.75
2022-10-29T12:04:50.218Z,81.03
2022-10-29T12:06:12.386Z,81.50
2022-10-29T12:07:38.289Z,81.39
2022-10-29T12:09:11.179Z,82.58
2022-10-29T12:10:19.080Z,79.17
2022-10-29T12:11:50.358Z,79.97
2022-10-29T12:13:17.085Z,78.60
2022-10-29T12:14:31.861Z,80.06
2022-10-29T12:15:43.664Z,79.86
2022-10-29T12:16:59.597Z,80.42
2022-10-29T12:18:27.963Z,79.99
2022-10-29T12:19:46.028Z,79.91
2022-10-29T12:20:54.846Z,80.91
2022-10-29T12:22:15.332Z,77.19
2022-10-29T12:23:35.702Z,80.04
2022-10-29T12:25:11.977Z,77.60
2022-10-29T12:26:24.630Z,78.23
2022-10-29T12:28:02.119Z,79.22
2022-10-29T12:29:27.729Z,77.76
2022-10-29T12:30:36.775Z,76.95
2022-10-29T12:31:45.196Z,77.10
2022-10-29T12:33:07.461Z,77.89
2022-10-29T12:34:41.561Z,77.79
2022-10-29T12:35:47.200Z,77.36
2022-10-29T12:36:57.713Z,76.80
2022-10-29T12:38:21.321Z,76.65
2022-10-29T12:39:37.150Z,77.95
2022-10-29T12:40:42.983Z,77.83
2022-10-29T12:41:48.870Z,78.96
2022-10-29T12:42:52.568Z,79.42
2022-10-29T12:44:14.854Z,77.46
2022-10-29T12:45:53.085Z,76.93
2022-10-29T12:46:46.206Z,76.95
2022-10-29T12:48:07.064Z,78.39
2022-10-29T12:49:21.546Z,77.22
2022-10-29T12:50:43.301Z,76.60
2022-10-29T12:51:54.638Z,77.08
2022-10-29T12:53:18.571Z,76.94
2022-10-29T12:54:36.798Z,76.97
2022-10-29T12:55:41.486Z,77.27
2022-10-29T12:56:47.813Z,77.72
2022-10-29T12:57:48.282Z,78.07
2022-10-29T12:58:53.238Z,77.95
2022-10-29T12:59:55.275Z,77.85
2022-10-29T13:00:57.473Z,77.84
2022-10-29T13:02:20.084Z,78.01
2022-10-29T13:03:55.275Z,78.16
2022-10-29T13:05:10.090Z,78.13
2022-10-29T13:06:45.297Z,78.18
2022-10-29T13:07:50.867Z,78.19
2022-10-29T13:08:56.178Z,78.30
2022-10-29T13:10:25.002Z,78.32
2022-10-29T13:11:30.508Z,78.26
2022-10-29T13:12:56.107Z,78.45
2022-10-29T13:13:59.899Z,78.28
2022-10-29T13:15:08.833Z,78.44
2022-10-29T13:16:18.915Z,78.55
2022-10-29T13:17:33.479Z,78.80
2022-10-29T13:18:45.182Z,78.31
2022-10-29T13:20:02.271Z,78.27
2022-10-29T13:21:04.422Z,78.37
2022-10-29T13:22:12.839Z,78.55
2022-10-29T13:23:27.685Z,78.79
2022-10-29T13:24:31.068Z,78.90
2022-10-29T13:25:36.650Z,78.87
2022-10-29T13:27:00.448Z,78.75
2022-10-29T13:28:12.276Z,78.80
2022-10-29T13:29:18.667Z,79.03
2022-10-29T13:30:25.290Z,78.94
2022-10-29T13:31:31.678Z,78.83
2022-10-29T13:32:38.467Z,78.53
2022-10-29T13:33:47.411Z,78.34
2022-10-29T13:34:58.237Z,78.45
2022-10-29T13:36:03.998Z,78.68
2022-10-29T13:37:38.333Z,78.97
2022-10-29T13:39:06.040Z,79.27
2022-10-29T13:40:23.954Z,79.43
2022-10-29T13:41:35.066Z,79.25
2022-10-29T13:42:37.595Z,79.29
2022-10-29T13:43:56.052Z,79.15
2022-10-29T13:44:59.670Z,79.11
2022-10-29T13:46:17.441Z,79.28
2022-10-29T13:47:22.377Z,79.25
2022-10-29T13:48:35.917Z,79.12
2022-10-29T13:49:41.420Z,79.24
2022-10-29T13:50:47.510Z,79.64
2022-10-29T13:52:05.694Z,79.65
2022-10-29T13:53:13.488Z,79.52
2022-10-29T13:55:32.877Z,79.46
2022-10-29T13:56:55.344Z,79.49
2022-10-29T14:08:21.653Z,79.72
2022-10-29T14:09:39.583Z,79.56
2022-10-29T14:10:51.173Z,79.51
2022-10-29T14:11:57.196Z,79.30
2022-10-29T14:13:03.212Z,78.93
2022-10-29T14:14:09.887Z,78.94
2022-10-29T14:15:14.528Z,78.94
2022-10-29T14:25:31.833Z,78.60
2022-10-29T14:26:40.642Z,78.41
2022-10-29T14:27:42.426Z,78.23
2022-10-29T14:28:44.373Z,78.50
2022-10-29T14:29:46.158Z,78.50
2022-10-29T14:31:04.524Z,78.87
2022-10-29T14:32:14.330Z,79.20
2022-10-29T14:33:24.976Z,79.62
2022-10-29T14:34:27.419Z,79.25
2022-10-29T14:35:29.981Z,78.66
2022-10-29T14:36:44.911Z,78.70
2022-10-29T14:37:49.351Z,78.51
2022-10-29T14:39:03.653Z,78.41
2022-10-29T14:40:21.671Z,78.17
2022-10-29T14:41:26.774Z,78.15
2022-10-29T14:42:35.122Z,78.10
2022-10-29T14:43:38.480Z,78.05
2022-10-29T14:44:40.547Z,77.92
2022-10-29T14:45:42.689Z,77.94
2022-10-29T14:46:58.068Z,77.92
2022-10-29T14:48:05.112Z,77.78
2022-10-29T14:49:22.238Z,77.63
2022-10-29T14:50:29.584Z,77.59
2022-10-29T14:51:35.138Z,77.68
2022-10-29T14:52:43.427Z,77.59
2022-10-29T14:53:47.446Z,77.55
2022-10-29T14:54:50.346Z,77.53
2022-10-29T14:55:52.634Z,77.56
2022-10-29T14:57:04.031Z,77.48
2022-10-29T14:58:15.518Z,77.36
2022-10-29T14:59:22.543Z,77.50
2022-10-29T15:00:30.392Z,77.39